sensor_id;sensor_type;location;lat;lon;timestamp;pressure;altitude;pressure_sealevel;temperature;humidity
36788;BME280;22738;45.560;9.434;2022-09-09T00:00:16;99475.34;;;22.34;100.00
36788;BME280;22738;45.560;9.434;2022-09-09T00:07:15;99476.16;;;22.35;100.00
36788;BME280;22738;45.560;9.434;2022-09-09T00:14:00;99471.88;;;22.34;100.00
36788;BME280;22738;45.560;9.434;2022-09-09T00:20:53;99472.16;;;22.39;100.00
36788;BME280;22738;45.560;9.434;2022-09-09T00:27:42;99466.06;;;22.38;100.00
36788;BME280;22738;45.560;9.434;2022-09-09T00:34:27;99466.13;;;22.45;100.00
36788;BME280;22738;45.560;9.434;2022-09-09T00:41:19;99452.66;;;22.40;100.00
36788;BME280;22738;45.560;9.434;2022-09-09T00:48:10;99444.56;;;22.41;100.00
36788;BME280;22738;45.560;9.434;2022-09-09T00:55:13;99431.53;;;22.25;100.00
36788;BME280;22738;45.560;9.434;2022-09-09T01:01:56;99420.44;;;22.00;100.00
36788;BME280;22738;45.560;9.434;2022-09-09T01:15:32;99407.59;;;21.75;100.00
36788;BME280;22738;45.560;9.434;2022-09-09T01:22:39;99412.88;;;21.75;100.00
36788;BME280;22738;45.560;9.434;2022-09-09T01:29:21;99404.63;;;21.78;100.00
36788;BME280;22738;45.560;9.434;2022-09-09T01:36:12;99417.13;;;21.84;100.00
36788;BME280;22738;45.560;9.434;2022-09-09T01:43:03;99407.06;;;21.79;100.00
36788;BME280;22738;45.560;9.434;2022-09-09T01:49:45;99410.19;;;21.46;100.00
36788;BME280;22738;45.560;9.434;2022-09-09T02:03:35;99395.84;;;21.63;100.00
36788;BME280;22738;45.560;9.434;2022-09-09T02:10:37;99401.69;;;21.73;100.00
36788;BME280;22738;45.560;9.434;2022-09-09T02:17:32;99407.41;;;21.76;100.00
36788;BME280;22738;45.560;9.434;2022-09-09T02:24:22;99419.41;;;21.87;100.00
36788;BME280;22738;45.560;9.434;2022-09-09T02:31:14;99407.38;;;21.99;100.00
36788;BME280;22738;45.560;9.434;2022-09-09T02:38:01;99407.94;;;22.09;100.00
36788;BME280;22738;45.560;9.434;2022-09-09T02:44:45;99407.88;;;22.02;100.00
36788;BME280;22738;45.560;9.434;2022-09-09T02:51:47;99386.44;;;21.83;100.00
36788;BME280;22738;45.560;9.434;2022-09-09T02:58:32;99376.59;;;21.77;100.00
36788;BME280;22738;45.560;9.434;2022-09-09T03:05:18;99388.38;;;21.89;100.00
36788;BME280;22738;45.560;9.434;2022-09-09T03:12:00;99387.75;;;21.87;100.00
36788;BME280;22738;45.560;9.434;2022-09-09T03:18:42;99376.44;;;21.93;100.00
36788;BME280;22738;45.560;9.434;2022-09-09T03:25:26;99362.78;;;22.04;100.00
36788;BME280;22738;45.560;9.434;2022-09-09T03:32:09;99364.63;;;22.18;100.00
36788;BME280;22738;45.560;9.434;2022-09-09T03:38:53;99365.81;;;22.16;100.00
36788;BME280;22738;45.560;9.434;2022-09-09T03:45:36;99378.81;;;22.17;100.00
36788;BME280;22738;45.560;9.434;2022-09-09T03:52:17;99381.72;;;22.22;100.00
36788;BME280;22738;45.560;9.434;2022-09-09T03:58:59;99372.63;;;22.25;100.00
36788;BME280;22738;45.560;9.434;2022-09-09T04:05:41;99382.75;;;22.21;100.00
36788;BME280;22738;45.560;9.434;2022-09-09T04:12:23;99369.91;;;22.18;100.00
36788;BME280;22738;45.560;9.434;2022-09-09T04:19:05;99365.53;;;22.11;100.00
36788;BME280;22738;45.560;9.434;2022-09-09T04:25:49;99372.16;;;22.07;100.00
36788;BME280;22738;45.560;9.434;2022-09-09T04:32:32;99406.50;;;21.92;100.00
36788;BME280;22738;45.560;9.434;2022-09-09T04:39:14;99421.31;;;21.93;100.00
36788;BME280;22738;45.560;9.434;2022-09-09T04:45:55;99428.53;;;21.76;100.00
36788;BME280;22738;45.560;9.434;2022-09-09T04:52:39;99436.91;;;21.80;100.00
36788;BME280;22738;45.560;9.434;2022-09-09T04:59:21;99455.22;;;21.59;100.00
36788;BME280;22738;45.560;9.434;2022-09-09T05:06:09;99472.72;;;21.60;100.00
36788;BME280;22738;45.560;9.434;2022-09-09T05:12:52;99482.47;;;21.51;100.00
36788;BME280;22738;45.560;9.434;2022-09-09T05:19:35;99468.94;;;21.31;100.00
36788;BME280;22738;45.560;9.434;2022-09-09T05:26:18;99464.31;;;21.33;100.00
36788;BME280;22738;45.560;9.434;2022-09-09T05:33:03;99471.25;;;21.35;100.00
36788;BME280;22738;45.560;9.434;2022-09-09T05:39:44;99480.63;;;21.37;100.00
36788;BME280;22738;45.560;9.434;2022-09-09T05:46:26;99504.47;;;21.44;100.00
36788;BME280;22738;45.560;9.434;2022-09-09T05:53:09;99520.09;;;21.22;100.00
36788;BME280;22738;45.560;9.434;2022-09-09T05:59:51;99497.75;;;21.02;100.00
36788;BME280;22738;45.560;9.434;2022-09-09T06:06:37;99502.56;;;20.60;100.00
36788;BME280;22738;45.560;9.434;2022-09-09T06:13:25;99506.81;;;20.69;100.00
36788;BME280;22738;45.560;9.434;2022-09-09T06:20:07;99498.53;;;20.72;100.00
36788;BME280;22738;45.560;9.434;2022-09-09T06:26:50;99493.94;;;20.74;100.00
36788;BME280;22738;45.560;9.434;2022-09-09T06:33:38;99490.13;;;20.85;100.00
36788;BME280;22738;45.560;9.434;2022-09-09T06:40:23;99475.91;;;21.24;100.00
36788;BME280;22738;45.560;9.434;2022-09-09T06:47:04;99488.88;;;21.34;100.00
36788;BME280;22738;45.560;9.434;2022-09-09T06:53:50;99488.94;;;21.71;100.00
36788;BME280;22738;45.560;9.434;2022-09-09T07:00:32;99496.16;;;21.55;100.00
36788;BME280;22738;45.560;9.434;2022-09-09T07:07:14;99510.84;;;21.26;100.00
36788;BME280;22738;45.560;9.434;2022-09-09T07:13:57;99507.66;;;23.09;100.00
36788;BME280;22738;45.560;9.434;2022-09-09T07:20:39;99509.06;;;24.60;100.00
36788;BME280;22738;45.560;9.434;2022-09-09T07:27:22;99502.84;;;27.67;100.00
36788;BME280;22738;45.560;9.434;2022-09-09T07:34:05;99503.66;;;29.92;100.00
36788;BME280;22738;45.560;9.434;2022-09-09T07:40:49;99512.38;;;33.02;86.75
36788;BME280;22738;45.560;9.434;2022-09-09T07:47:30;99520.94;;;31.61;84.63
36788;BME280;22738;45.560;9.434;2022-09-09T07:54:15;99520.22;;;27.45;100.00
36788;BME280;22738;45.560;9.434;2022-09-09T08:00:59;99520.03;;;25.38;100.00
36788;BME280;22738;45.560;9.434;2022-09-09T08:07:41;99524.06;;;25.21;100.00
36788;BME280;22738;45.560;9.434;2022-09-09T08:14:22;99536.28;;;25.16;100.00
36788;BME280;22738;45.560;9.434;2022-09-09T08:21:13;99539.72;;;25.90;100.00
36788;BME280;22738;45.560;9.434;2022-09-09T08:27:54;99527.19;;;25.44;100.00
36788;BME280;22738;45.560;9.434;2022-09-09T08:34:36;99529.56;;;24.79;100.00
36788;BME280;22738;45.560;9.434;2022-09-09T08:55:48;99535.97;;;24.63;100.00
36788;BME280;22738;45.560;9.434;2022-09-09T09:23:47;99536.09;;;26.30;100.00
36788;BME280;22738;45.560;9.434;2022-09-09T09:30:35;99535.19;;;26.88;100.00
36788;BME280;22738;45.560;9.434;2022-09-09T09:37:33;99534.44;;;27.19;100.00
36788;BME280;22738;45.560;9.434;2022-09-09T09:51:09;99542.94;;;28.35;100.00
36788;BME280;22738;45.560;9.434;2022-09-09T09:57:53;99535.03;;;28.46;98.17
36788;BME280;22738;45.560;9.434;2022-09-09T10:04:37;99532.97;;;27.36;100.00
36788;BME280;22738;45.560;9.434;2022-09-09T10:18:51;99524.25;;;27.85;96.80
36788;BME280;22738;45.560;9.434;2022-09-09T10:33:07;99510.41;;;28.01;95.06
36788;BME280;22738;45.560;9.434;2022-09-09T10:39:59;99508.25;;;27.85;93.52
36788;BME280;22738;45.560;9.434;2022-09-09T10:47:00;99494.56;;;27.82;93.12
36788;BME280;22738;45.560;9.434;2022-09-09T10:53:57;99496.41;;;27.81;87.35
36788;BME280;22738;45.560;9.434;2022-09-09T11:00:53;99485.34;;;27.53;90.10
36788;BME280;22738;45.560;9.434;2022-09-09T11:07:42;99478.72;;;27.62;95.72
36788;BME280;22738;45.560;9.434;2022-09-09T11:14:39;99473.59;;;27.92;92.98
36788;BME280;22738;45.560;9.434;2022-09-09T11:21:30;99466.75;;;28.02;84.15
36788;BME280;22738;45.560;9.434;2022-09-09T11:35:38;99456.53;;;27.93;96.79
36788;BME280;22738;45.560;9.434;2022-09-09T11:42:23;99444.59;;;27.77;96.90
36788;BME280;22738;45.560;9.434;2022-09-09T11:49:06;99448.38;;;27.63;100.00
36788;BME280;22738;45.560;9.434;2022-09-09T11:55:48;99453.09;;;27.36;100.00
36788;BME280;22738;45.560;9.434;2022-09-09T12:02:48;99455.34;;;27.64;100.00
36788;BME280;22738;45.560;9.434;2022-09-09T12:09:47;99435.66;;;27.65;100.00
36788;BME280;22738;45.560;9.434;2022-09-09T12:16:37;99436.59;;;27.52;100.00
36788;BME280;22738;45.560;9.434;2022-09-09T12:30:12;99424.75;;;27.48;100.00
36788;BME280;22738;45.560;9.434;2022-09-09T12:37:02;99420.03;;;27.50;100.00
36788;BME280;22738;45.560;9.434;2022-09-09T12:43:45;99415.94;;;27.48;100.00
36788;BME280;22738;45.560;9.434;2022-09-09T12:50:36;99414.97;;;27.36;100.00
36788;BME280;22738;45.560;9.434;2022-09-09T12:57:19;99394.88;;;27.09;100.00
36788;BME280;22738;45.560;9.434;2022-09-09T13:04:01;99388.59;;;26.97;100.00
36788;BME280;22738;45.560;9.434;2022-09-09T13:10:51;99384.38;;;27.20;100.00
36788;BME280;22738;45.560;9.434;2022-09-09T13:17:37;99374.66;;;27.01;100.00
36788;BME280;22738;45.560;9.434;2022-09-09T13:24:40;99365.09;;;27.25;100.00
36788;BME280;22738;45.560;9.434;2022-09-09T13:38:09;99352.78;;;27.24;100.00
36788;BME280;22738;45.560;9.434;2022-09-09T13:44:50;99352.28;;;27.40;100.00
36788;BME280;22738;45.560;9.434;2022-09-09T13:51:41;99337.66;;;27.49;100.00
36788;BME280;22738;45.560;9.434;2022-09-09T13:58:23;99348.47;;;27.54;100.00
36788;BME280;22738;45.560;9.434;2022-09-09T14:05:06;99336.03;;;27.23;100.00
36788;BME280;22738;45.560;9.434;2022-09-09T14:11:47;99332.50;;;27.54;100.00
36788;BME280;22738;45.560;9.434;2022-09-09T14:18:28;99328.97;;;27.78;100.00
36788;BME280;22738;45.560;9.434;2022-09-09T14:25:09;99326.13;;;27.80;100.00
36788;BME280;22738;45.560;9.434;2022-09-09T14:31:52;99317.28;;;27.61;100.00
36788;BME280;22738;45.560;9.434;2022-09-09T14:38:35;99318.16;;;27.55;100.00
36788;BME280;22738;45.560;9.434;2022-09-09T14:45:20;99310.84;;;27.50;99.94
36788;BME280;22738;45.560;9.434;2022-09-09T14:52:05;99315.06;;;27.76;99.87
36788;BME280;22738;45.560;9.434;2022-09-09T14:58:46;99311.22;;;27.90;97.49
36788;BME280;22738;45.560;9.434;2022-09-09T15:05:27;99306.56;;;27.86;99.76
36788;BME280;22738;45.560;9.434;2022-09-09T15:12:08;99303.22;;;27.72;95.75
36788;BME280;22738;45.560;9.434;2022-09-09T15:18:51;99312.28;;;27.71;98.51
36788;BME280;22738;45.560;9.434;2022-09-09T15:25:34;99301.91;;;27.63;100.00
36788;BME280;22738;45.560;9.434;2022-09-09T15:32:15;99296.88;;;27.55;100.00
36788;BME280;22738;45.560;9.434;2022-09-09T15:38:58;99284.56;;;27.54;91.94
36788;BME280;22738;45.560;9.434;2022-09-09T15:45:39;99283.81;;;27.47;88.73
36788;BME280;22738;45.560;9.434;2022-09-09T15:52:20;99274.38;;;27.69;89.60
36788;BME280;22738;45.560;9.434;2022-09-09T15:59:02;99266.09;;;27.59;90.86
36788;BME280;22738;45.560;9.434;2022-09-09T16:05:44;99271.91;;;27.49;97.60
36788;BME280;22738;45.560;9.434;2022-09-09T16:12:25;99278.94;;;27.44;96.47
36788;BME280;22738;45.560;9.434;2022-09-09T16:19:08;99281.66;;;27.37;96.61
36788;BME280;22738;45.560;9.434;2022-09-09T16:25:54;99270.09;;;27.25;98.37
36788;BME280;22738;45.560;9.434;2022-09-09T16:32:36;99273.75;;;27.24;98.29
36788;BME280;22738;45.560;9.434;2022-09-09T16:39:19;99280.66;;;27.32;97.02
36788;BME280;22738;45.560;9.434;2022-09-09T16:46:00;99286.16;;;27.12;100.00
36788;BME280;22738;45.560;9.434;2022-09-09T16:52:41;99287.06;;;27.00;100.00
36788;BME280;22738;45.560;9.434;2022-09-09T16:59:24;99288.00;;;26.87;100.00
36788;BME280;22738;45.560;9.434;2022-09-09T17:06:13;99288.53;;;26.64;100.00
36788;BME280;22738;45.560;9.434;2022-09-09T17:12:55;99287.44;;;26.41;100.00
36788;BME280;22738;45.560;9.434;2022-09-09T17:19:37;99282.22;;;26.21;100.00
36788;BME280;22738;45.560;9.434;2022-09-09T17:26:23;99283.06;;;26.02;100.00
36788;BME280;22738;45.560;9.434;2022-09-09T17:33:04;99282.91;;;25.90;100.00
36788;BME280;22738;45.560;9.434;2022-09-09T17:39:46;99281.97;;;25.59;100.00
36788;BME280;22738;45.560;9.434;2022-09-09T17:46:31;99286.06;;;25.28;100.00
36788;BME280;22738;45.560;9.434;2022-09-09T17:53:14;99287.72;;;25.03;100.00
36788;BME280;22738;45.560;9.434;2022-09-09T17:59:56;99286.69;;;24.78;100.00
36788;BME280;22738;45.560;9.434;2022-09-09T18:06:39;99296.38;;;24.58;100.00
36788;BME280;22738;45.560;9.434;2022-09-09T18:13:21;99303.44;;;24.38;100.00
36788;BME280;22738;45.560;9.434;2022-09-09T18:20:02;99308.72;;;24.25;100.00
36788;BME280;22738;45.560;9.434;2022-09-09T18:26:43;99312.53;;;24.16;100.00
36788;BME280;22738;45.560;9.434;2022-09-09T18:33:25;99319.38;;;24.03;100.00
36788;BME280;22738;45.560;9.434;2022-09-09T18:40:06;99322.28;;;23.74;100.00
36788;BME280;22738;45.560;9.434;2022-09-09T18:46:48;99331.91;;;23.54;100.00
36788;BME280;22738;45.560;9.434;2022-09-09T18:53:29;99334.56;;;23.54;100.00
36788;BME280;22738;45.560;9.434;2022-09-09T19:00:11;99342.16;;;23.64;100.00
36788;BME280;22738;45.560;9.434;2022-09-09T19:06:53;99348.28;;;23.64;100.00
36788;BME280;22738;45.560;9.434;2022-09-09T19:13:37;99359.53;;;23.45;100.00
36788;BME280;22738;45.560;9.434;2022-09-09T19:20:19;99367.97;;;23.34;100.00
36788;BME280;22738;45.560;9.434;2022-09-09T19:27:04;99375.56;;;23.22;100.00
36788;BME280;22738;45.560;9.434;2022-09-09T19:33:47;99382.19;;;22.91;100.00
36788;BME280;22738;45.560;9.434;2022-09-09T19:40:29;99383.44;;;22.95;100.00
36788;BME280;22738;45.560;9.434;2022-09-09T19:47:11;99387.78;;;23.02;100.00
36788;BME280;22738;45.560;9.434;2022-09-09T19:54:02;99392.47;;;22.86;100.00
36788;BME280;22738;45.560;9.434;2022-09-09T20:00:44;99401.81;;;22.82;100.00
36788;BME280;22738;45.560;9.434;2022-09-09T20:07:25;99409.00;;;22.58;100.00
36788;BME280;22738;45.560;9.434;2022-09-09T20:14:06;99415.13;;;22.44;100.00
36788;BME280;22738;45.560;9.434;2022-09-09T20:20:47;99420.16;;;22.39;100.00
36788;BME280;22738;45.560;9.434;2022-09-09T20:27:29;99413.59;;;22.35;100.00
36788;BME280;22738;45.560;9.434;2022-09-09T20:34:13;99403.03;;;22.35;100.00
36788;BME280;22738;45.560;9.434;2022-09-09T20:40:54;99399.13;;;22.31;100.00
36788;BME280;22738;45.560;9.434;2022-09-09T20:47:36;99391.19;;;22.31;100.00
36788;BME280;22738;45.560;9.434;2022-09-09T20:54:20;99383.63;;;22.43;100.00
36788;BME280;22738;45.560;9.434;2022-09-09T21:01:04;99402.94;;;22.43;100.00
36788;BME280;22738;45.560;9.434;2022-09-09T21:07:47;99405.22;;;22.46;100.00
36788;BME280;22738;45.560;9.434;2022-09-09T21:14:28;99408.38;;;22.56;100.00
36788;BME280;22738;45.560;9.434;2022-09-09T21:21:09;99416.66;;;22.53;100.00
36788;BME280;22738;45.560;9.434;2022-09-09T21:27:50;99423.25;;;22.57;100.00
36788;BME280;22738;45.560;9.434;2022-09-09T21:34:33;99431.28;;;22.64;100.00
36788;BME280;22738;45.560;9.434;2022-09-09T21:41:16;99426.69;;;22.73;100.00
36788;BME280;22738;45.560;9.434;2022-09-09T21:47:57;99435.25;;;22.75;100.00
36788;BME280;22738;45.560;9.434;2022-09-09T21:54:38;99452.13;;;22.74;100.00
36788;BME280;22738;45.560;9.434;2022-09-09T22:01:23;99479.19;;;22.76;100.00
36788;BME280;22738;45.560;9.434;2022-09-09T22:08:08;99489.56;;;22.92;100.00
36788;BME280;22738;45.560;9.434;2022-09-09T22:14:49;99467.94;;;23.24;100.00
36788;BME280;22738;45.560;9.434;2022-09-09T22:21:32;99475.16;;;22.50;100.00
36788;BME280;22738;45.560;9.434;2022-09-09T22:28:13;99512.84;;;19.99;100.00
36788;BME280;22738;45.560;9.434;2022-09-09T22:34:55;99513.97;;;19.40;100.00
36788;BME280;22738;45.560;9.434;2022-09-09T22:41:36;99473.69;;;19.39;100.00
36788;BME280;22738;45.560;9.434;2022-09-09T22:48:17;99487.84;;;19.70;100.00
36788;BME280;22738;45.560;9.434;2022-09-09T22:54:58;99488.81;;;20.02;100.00
36788;BME280;22738;45.560;9.434;2022-09-09T23:01:40;99487.03;;;19.86;100.00
36788;BME280;22738;45.560;9.434;2022-09-09T23:08:23;99516.13;;;19.84;100.00
36788;BME280;22738;45.560;9.434;2022-09-09T23:15:08;99524.66;;;19.70;100.00
36788;BME280;22738;45.560;9.434;2022-09-09T23:21:50;99540.06;;;19.41;100.00
36788;BME280;22738;45.560;9.434;2022-09-09T23:28:32;99537.66;;;19.14;100.00
36788;BME280;22738;45.560;9.434;2022-09-09T23:35:14;99538.03;;;19.27;100.00
36788;BME280;22738;45.560;9.434;2022-09-09T23:41:55;99543.22;;;19.11;100.00
36788;BME280;22738;45.560;9.434;2022-09-09T23:48:37;99538.09;;;19.35;100.00
36788;BME280;22738;45.560;9.434;2022-09-09T23:55:20;99544.38;;;19.08;100.00
